SANT JULIÀ DE VILATORTA





Hora UTC 07:30
Temperatura 2.2 ºC
Humitat 96.8 %
Pressió 1014.5 hPa
Pluja 0.0 mm
Velocitat vent 1.3 km/h
Direcció vent SE
Radiació solar 14.0 W/m²

Dades diàries 2022-12-01



Hora UTC (hivern +1h; estiu +2h)
Temperatura (ºC) Humitat (%) Pressió (hPa) Velocitat vent (km/h) Precipitació (mm) Radiació solar (W/m²)
Hora UTC Aire Humitat Pressió Vel. Dir. Vel. Max Dir. Intent. màx 5 min. Rad. Sol.
00:05 3.6 92.9 1014.6 1.5 S 1.5 SW 0.0 0.4
00:10 3.6 93.2 1014.6 3.0 SSW 4.1 SW 0.0 0.4
00:15 3.7 93.2 1014.5 3.0 SSE 5.0 SE 0.0 0.3
00:20 3.8 92.9 1014.5 1.3 S 2.8 SE 0.0 0.3
00:25 3.8 92.6 1014.5 1.1 S 2.7 SSE 0.0 0.3
00:30 3.8 92.4 1014.4 1.4 ESE 2.3 ESE 0.0 0.2
00:35 3.7 92.4 1014.4 1.0 WSW 1.9 W 0.0 0.0
00:40 3.7 92.4 1014.4 1.0 SSW 2.2 WNW 0.0 0.1
00:45 3.8 92.5 1014.4 2.8 NNE 4.0 NNE 0.0 0.2
00:50 3.8 92.5 1014.4 2.3 N 3.6 N 0.0 0.2
00:55 3.9 92.4 1014.4 1.4 SSE 3.2 SW 0.0 0.1
01:00 3.9 92.2 1014.4 0.7 S 1.8 SW 0.0 0.0
01:05 3.9 92.1 1014.3 0.7 S 1.1 SSE 0.0 0.0
01:10 3.9 92.2 1014.3 1.0 SE 1.7 SSE 0.0 0.0
01:15 4.0 92.0 1014.3 0.6 ENE 1.4 ESE 0.0 0.0
01:20 3.9 91.9 1014.3 1.1 NE 1.5 SE 0.0 0.0
01:25 4.0 91.8 1014.3 2.0 ESE 3.5 ENE 0.0 0.0
01:30 3.9 91.6 1014.2 2.8 ENE 4.0 E 0.0 0.0
01:35 3.9 91.8 1014.2 1.9 SE 3.4 SE 0.0 0.0
01:40 3.9 91.4 1014.3 1.4 NE 3.7 NW 0.0 0.0
01:45 3.7 91.6 1014.3 2.2 ENE 3.5 ENE 0.0 0.0
01:50 3.5 91.9 1014.3 0.9 SE 2.1 E 0.0 0.0
01:55 3.3 92.1 1014.3 1.1 WNW 2.3 W 0.0 0.0
02:00 3.0 92.6 1014.3 2.6 NW 3.4 WNW 0.0 0.0
02:05 2.8 93.2 1014.3 1.6 NNW 3.5 NNW 0.0 0.0
02:10 2.7 93.8 1014.3 0.8 NW 2.1 WNW 0.0 0.0
02:15 2.5 94.1 1014.3 1.7 N 2.9 NNW 0.0 0.0
02:20 2.5 94.6 1014.3 1.3 ESE 2.4 E 0.0 0.0
02:25 2.4 94.8 1014.3 3.4 E 5.2 E 0.0 0.0
02:30 2.2 95.2 1014.2 2.4 SE 3.5 E 0.0 0.0
02:35 2.0 95.3 1014.2 3.3 SSE 4.7 SE 0.0 0.0
02:40 2.0 95.9 1014.2 2.6 SE 4.4 SE 0.0 0.0
02:45 2.0 96.1 1014.2 1.2 SSE 3.2 SSE 0.0 0.0
02:50 1.9 96.0 1014.2 1.0 SE 1.6 SSE 0.0 0.1
02:55 1.8 96.2 1014.2 0.7 ENE 1.2 ENE 0.0 0.5
03:00 1.9 96.6 1014.1 0.6 E 1.1 E 0.0 0.5
03:05 1.9 96.8 1014.2 1.9 NE 3.4 NE 0.0 0.2
03:10 1.9 96.9 1014.1 1.8 E 2.9 E 0.0 0.0
03:15 1.8 96.9 1014.1 1.6 SE 2.1 SE 0.0 0.0
03:20 1.7 96.9 1014.1 2.3 SSE 2.9 SSE 0.0 0.1
03:25 1.8 97.1 1014.1 1.2 ESE 2.8 SE 0.0 0.1
03:30 1.9 97.2 1014.1 1.3 ENE 2.1 ENE 0.0 0.1
03:35 1.9 97.2 1014.0 1.4 SE 2.0 SE 0.0 0.0
03:40 1.9 97.2 1014.0 1.4 ESE 2.0 ESE 0.0 0.0
03:45 1.9 97.2 1014.0 1.6 ESE 2.5 ESE 0.0 0.3
03:50 2.0 97.2 1013.9 1.7 E 3.0 ESE 0.0 0.5
03:55 2.1 97.3 1014.0 2.0 NE 2.5 NE 0.0 0.3
04:00 2.2 97.4 1013.9 1.7 NE 2.4 NE 0.0 0.0
04:05 2.3 97.4 1013.9 1.6 NNE 2.1 NNE 0.0 0.0
04:10 2.4 97.5 1013.9 1.2 ENE 1.7 N 0.0 0.0
04:15 2.4 97.2 1013.9 1.7 SE 3.2 SE 0.0 0.0
04:20 2.4 97.1 1013.9 1.0 SE 1.7 ESE 0.0 0.0
04:25 2.4 97.0 1013.9 1.2 SSE 2.0 SSE 0.0 0.0
04:30 2.4 96.9 1013.9 2.4 SSE 3.3 SSE 0.0 0.0
04:35 2.4 96.8 1013.9 1.4 S 2.4 S 0.0 0.0
04:40 2.3 96.5 1013.9 2.2 SE 3.6 SE 0.0 0.0
04:45 2.2 96.4 1013.9 0.9 SSW 1.6 S 0.0 0.0
04:50 2.0 96.2 1013.9 0.8 WNW 1.5 NNW 0.0 0.0
04:55 1.8 96.4 1013.8 1.6 N 2.3 NNE 0.0 0.0
05:00 1.7 96.5 1013.8 1.4 ENE 2.4 E 0.0 0.0
05:05 1.7 96.9 1013.9 1.9 ESE 2.8 E 0.0 0.0
05:10 1.6 97.0 1013.9 2.0 ESE 3.2 E 0.0 0.0
05:15 1.4 97.0 1013.8 1.3 SE 3.7 E 0.0 0.0
05:20 1.3 97.0 1013.9 1.2 SSE 1.7 SSE 0.0 0.0
05:25 1.1 97.2 1013.9 1.3 SE 2.4 SE 0.0 0.0
05:30 1.1 97.3 1013.9 0.8 SE 1.6 SSE 0.0 0.0
05:35 0.9 97.3 1013.9 1.5 E 2.5 E 0.0 0.0
05:40 0.9 97.6 1013.9 2.3 ESE 3.3 E 0.0 0.1
05:45 1.0 97.9 1014.0 2.6 SE 3.3 SSE 0.0 0.3
05:50 1.1 98.0 1014.0 2.3 SSE 3.8 SE 0.0 0.2
05:55 1.1 98.0 1014.0 2.2 SE 3.7 S 0.0 0.3
06:00 1.2 98.2 1014.0 2.1 SE 3.2 SSE 0.0 0.3
06:05 1.3 98.2 1014.1 2.4 SE 5.5 SE 0.0 0.2
06:10 1.4 98.2 1014.1 1.5 E 2.9 SE 0.0 0.1
06:15 1.4 98.1 1014.1 1.1 SE 1.9 E 0.0 0.0
06:20 1.4 98.1 1014.1 1.5 S 2.4 S 0.0 0.0
06:25 1.4 98.1 1014.1 2.5 SSE 3.1 SSE 0.0 0.0
06:30 1.4 98.1 1014.1 2.3 SSE 3.4 SE 0.0 0.0
06:35 1.6 98.1 1014.1 1.7 SSE 2.9 SSE 0.0 0.0
06:40 1.6 98.0 1014.2 0.5 SSW 1.0 WSW 0.0 0.1
06:45 1.6 97.8 1014.2 0.5 NW 1.1 ESE 0.0 0.4
06:50 1.7 97.9 1014.2 0.5 NW 1.4 NNW 0.0 0.8
06:55 1.8 97.8 1014.3 0.9 W 1.7 S 0.0 1.1
07:00 1.7 97.7 1014.3 0.6 SSE 1.5 SE 0.0 1.7
07:05 1.8 97.8 1014.4 1.2 S 2.1 SSE 0.0 2.8
07:10 1.9 97.7 1014.4 0.5 SW 1.3 S 0.0 3.9
07:15 2.0 97.6 1014.4 1.1 ESE 2.0 SSE 0.0 5.7
07:20 2.1 97.3 1014.4 1.1 ESE 2.3 ESE 0.0 8.4
07:25 2.1 97.0 1014.5 0.7 S 2.0 SSW 0.0 10.7
07:30 2.2 96.8 1014.5 1.3 SE 2.3 SE 0.0 14.0
Màxima 4.0 98.2 1014.6 3.4 E 5.5 SE 0.0 14.0
Mínima 0.8 91.4 1013.8
Total 0.0